Time;durP1;ratioP1;P1;durP2;ratioP2;P2;SDS_P1;SDS_P2;PMS_P1;PMS_P2;Temp;Humidity;BMP_temperature;BMP_pressure;BME280_temperature;BME280_humidity;BME280_pressure;Samples;Min_cycle;Max_cycle;Signal;HPM_P1;HPM_P2
2023/05/03 00:06:50;;;;;;;0.15;0.15;;;;;;;20.39;41.79;99767.59;20983180;28;20047;-70
2023/05/03 00:16:57;;;;;;;1.05;0.35;;;;;;;20.59;41.80;99819.22;20984696;28;20040;-70
2023/05/03 00:26:58;;;;;;;0.40;0.30;;;;;;;20.58;41.57;99828.69;20983189;28;20488;-69
2023/05/03 00:37:00;;;;;;;0.93;0.50;;;;;;;19.97;41.72;99741.63;20983478;28;20032;-69
2023/05/03 00:47:01;;;;;;;0.82;0.50;;;;;;;19.92;41.92;99735.34;21001399;28;20029;-70
2023/05/03 00:57:04;;;;;;;1.98;0.30;;;;;;;20.43;42.06;99840.03;20989818;28;20071;-69
2023/05/03 01:07:27;;;;;;;3.30;0.50;;;;;;;20.50;41.84;99869.09;20994465;28;20086;-69
2023/05/03 01:17:34;;;;;;;0.50;0.50;;;;;;;20.46;42.07;99865.25;21000158;28;20059;-70
2023/05/03 01:27:37;;;;;;;0.40;0.40;;;;;;;20.50;42.05;99879.41;20952057;28;20041;-70
2023/05/03 01:37:38;;;;;;;0.40;0.40;;;;;;;20.20;42.09;99850.94;20992927;28;20036;-70
2023/05/03 01:47:40;;;;;;;2.20;0.45;;;;;;;20.28;41.80;99874.44;20992128;28;20488;-70
2023/05/03 01:57:41;;;;;;;2.03;0.40;;;;;;;20.49;42.30;99911.94;20980055;28;20048;-70
2023/05/03 02:07:43;;;;;;;4.05;0.57;;;;;;;20.50;42.15;99898.84;20959459;28;20040;-68
2023/05/03 02:17:46;;;;;;;3.95;0.80;;;;;;;20.43;42.13;99874.19;20912404;28;20041;-68
2023/05/03 02:27:47;;;;;;;2.53;1.15;;;;;;;20.50;42.47;99882.19;20911500;28;20495;-68
2023/05/03 02:37:48;;;;;;;3.17;0.73;;;;;;;20.46;42.66;99875.53;20942814;28;20041;-68
2023/05/03 02:47:50;;;;;;;3.53;0.70;;;;;;;20.46;42.95;99867.22;20992394;28;20043;-68
2023/05/03 02:57:51;;;;;;;3.40;0.75;;;;;;;20.48;43.14;99864.97;20992347;28;20487;-68
2023/05/03 03:07:53;;;;;;;2.70;0.65;;;;;;;20.48;43.34;99864.97;20980997;28;20047;-68
2023/05/03 03:17:57;;;;;;;3.38;0.50;;;;;;;20.49;42.94;99861.91;20931688;28;20057;-69
2023/05/03 03:27:59;;;;;;;1.60;0.73;;;;;;;20.49;43.37;99849.97;20958375;28;20052;-69
2023/05/03 03:38:00;;;;;;;3.72;1.17;;;;;;;20.37;43.80;99846.81;20990598;28;20070;-69
2023/05/03 03:48:02;;;;;;;4.13;0.50;;;;;;;20.51;43.95;99864.38;20989232;28;20488;-68
2023/05/03 03:58:04;;;;;;;2.15;0.70;;;;;;;20.28;44.07;99830.81;20936596;28;20113;-68
2023/05/03 04:08:06;;;;;;;0.93;0.50;;;;;;;20.50;44.15;99863.56;20995600;28;20044;-68
2023/05/03 04:18:08;;;;;;;5.40;0.73;;;;;;;19.99;44.33;99781.03;20961459;28;20048;-70
2023/05/03 04:28:12;;;;;;;1.85;0.47;;;;;;;20.47;44.33;99860.50;20924416;28;20072;-69
2023/05/03 04:38:14;;;;;;;0.63;0.60;;;;;;;20.42;44.36;99855.06;20921141;28;20057;-69
2023/05/03 04:48:16;;;;;;;1.08;0.40;;;;;;;20.48;44.17;99853.84;20920494;28;20049;-69
2023/05/03 04:58:21;;;;;;;0.57;0.43;;;;;;;20.51;44.06;99858.81;20920514;28;20045;-69
2023/05/03 05:08:22;;;;;;;1.30;0.60;;;;;;;20.56;43.92;99855.94;20918927;28;20045;-68
2023/05/03 05:18:23;;;;;;;1.20;0.50;;;;;;;20.28;43.99;99816.94;20918816;28;20041;-69
2023/05/03 05:28:27;;;;;;;1.60;0.60;;;;;;;20.53;43.73;99842.69;20917652;28;20037;-69
2023/05/03 05:38:29;;;;;;;0.75;0.60;;;;;;;20.48;43.80;99839.97;20886221;28;20034;-69
2023/05/03 05:48:30;;;;;;;2.38;0.57;;;;;;;20.50;43.34;99837.72;20823692;28;20484;-69
2023/05/03 05:58:31;;;;;;;0.90;0.60;;;;;;;20.49;43.42;99827.75;20838853;28;20393;-69
2023/05/03 06:08:35;;;;;;;2.00;1.00;;;;;;;20.13;43.42;99758.88;20914500;28;20044;-68
2023/05/03 06:18:39;;;;;;;1.63;0.60;;;;;;;20.29;43.37;99773.28;20913096;28;20052;-69
2023/05/03 06:28:45;;;;;;;2.17;0.68;;;;;;;20.38;43.10;99777.03;20987939;28;20041;-68
2023/05/03 06:38:49;;;;;;;1.40;0.50;;;;;;;20.42;43.14;99775.28;20991706;28;20041;-68
2023/05/03 06:48:56;;;;;;;0.93;0.50;;;;;;;20.42;43.50;99777.25;20960090;28;20033;-68
2023/05/03 06:59:00;;;;;;;0.90;0.40;;;;;;;20.42;43.41;99766.13;20948876;28;20103;-68
2023/05/03 07:09:05;;;;;;;0.38;0.38;;;;;;;20.39;43.39;99750.06;20926892;28;20041;-69
2023/05/03 07:19:06;;;;;;;0.57;0.50;;;;;;;20.37;43.03;99752.34;20932720;28;20044;-69
2023/05/03 07:29:10;;;;;;;0.90;0.50;;;;;;;19.98;43.55;99703.59;20952113;28;20089;-69
2023/05/03 07:39:11;;;;;;;0.52;0.50;;;;;;;20.27;43.30;99759.72;20977124;28;20074;-69
2023/05/03 07:49:13;;;;;;;1.55;0.43;;;;;;;20.27;42.93;99753.34;20983674;28;20110;-69
2023/05/03 07:59:14;;;;;;;0.40;0.40;;;;;;;20.34;43.27;99764.03;20938773;28;20086;-68
2023/05/03 08:09:19;;;;;;;0.73;0.40;;;;;;;19.84;43.14;99684.13;20943476;28;20098;-68
2023/05/03 08:19:30;;;;;;;0.57;0.35;;;;;;;20.25;43.07;99737.00;20972843;28;20040;-68
2023/05/03 08:29:31;;;;;;;1.08;0.50;;;;;;;20.26;43.22;99735.84;20972079;28;20045;-68
2023/05/03 08:39:33;;;;;;;0.50;0.30;;;;;;;20.27;43.12;99743.06;20921748;28;20041;-69
2023/05/03 08:49:36;;;;;;;0.55;0.40;;;;;;;20.06;42.89;99708.44;20919907;28;20029;-69
2023/05/03 09:00:00;;;;;;;0.45;0.40;;;;;;;20.07;43.25;99715.66;20920647;28;20029;-69
2023/05/03 09:10:01;;;;;;;0.47;0.30;;;;;;;20.23;43.00;99744.78;20985265;28;20128;-68
2023/05/03 09:20:03;;;;;;;0.40;0.38;;;;;;;20.23;42.70;99732.84;20997631;28;20445;-68
2023/05/03 09:30:18;;;;;;;1.77;0.60;;;;;;;20.08;42.96;99745.06;20946411;28;20044;-68
2023/05/03 09:40:19;;;;;;;0.32;0.32;;;;;;;20.17;42.69;99748.81;20962350;28;20074;-68
2023/05/03 09:50:23;;;;;;;0.50;0.50;;;;;;;20.17;42.54;99768.25;20923165;28;20029;-69
2023/05/03 10:00:24;;;;;;;0.40;0.30;;;;;;;20.15;43.00;99773.25;20970854;28;20078;-69
2023/05/03 10:10:30;;;;;;;0.35;0.30;;;;;;;19.97;42.83;99726.91;21081448;28;20066;-69
2023/05/03 10:20:53;;;;;;;1.52;0.40;;;;;;;20.16;42.66;99774.06;21080629;28;20391;-69
2023/05/03 10:30:55;;;;;;;0.35;0.35;;;;;;;20.14;42.53;99771.63;21071210;28;20094;-69
2023/05/03 10:41:02;;;;;;;0.63;0.40;;;;;;;20.05;42.49;99784.53;20991862;28;20043;-69
2023/05/03 10:51:44;;;;;;;0.50;0.40;;;;;;;20.05;42.72;99806.75;20948062;28;20017;-69
2023/05/03 11:01:50;;;;;;;0.93;0.43;;;;;;;20.14;42.39;99798.56;20603840;28;20043;-69
2023/05/03 11:11:51;;;;;;;0.30;0.30;;;;;;;20.15;42.61;99817.69;20841561;28;20488;-69
2023/05/03 11:21:52;;;;;;;0.60;0.50;;;;;;;20.12;42.15;99807.22;20982103;28;20051;-69
2023/05/03 11:31:54;;;;;;;0.70;0.47;;;;;;;20.17;42.22;99831.31;20978006;28;20055;-68
2023/05/03 11:42:03;;;;;;;0.40;0.40;;;;;;;20.09;42.14;99818.91;20981651;28;20118;-68
2023/05/03 11:52:05;;;;;;;0.45;0.45;;;;;;;20.18;42.03;99828.22;20936714;28;20561;-68
2023/05/03 12:02:08;;;;;;;0.70;0.45;;;;;;;20.19;42.25;99838.19;20957939;28;20102;-68
2023/05/03 12:12:09;;;;;;;0.45;0.38;;;;;;;20.20;41.92;99834.28;20990369;28;20053;-68
2023/05/03 12:22:19;;;;;;;0.30;0.30;;;;;;;20.20;41.95;99847.34;20928163;28;20138;-68
2023/05/03 12:32:20;;;;;;;0.45;0.45;;;;;;;20.22;42.03;99856.22;20925897;28;20191;-68
2023/05/03 12:42:22;;;;;;;0.63;0.40;;;;;;;20.20;42.25;99859.28;20954894;28;20064;-67
2023/05/03 12:52:26;;;;;;;0.30;0.30;;;;;;;20.19;42.14;99865.16;20934658;28;20040;-70
2023/05/03 13:02:27;;;;;;;1.23;0.40;;;;;;;19.93;42.36;99821.13;20993952;28;20040;-68
2023/05/03 13:12:35;;;;;;;0.60;0.50;;;;;;;19.86;42.26;99819.84;21000798;28;20037;-68
2023/05/03 13:22:36;;;;;;;2.85;0.63;;;;;;;20.13;42.66;99874.69;20990048;28;20037;-70
2023/05/03 13:32:38;;;;;;;2.67;0.50;;;;;;;20.19;43.17;99895.69;20990898;28;20560;-71
2023/05/03 13:42:39;;;;;;;0.45;0.45;;;;;;;20.12;43.39;99900.81;20957674;28;20040;-69
2023/05/03 13:52:43;;;;;;;2.33;0.73;;;;;;;20.12;42.99;99907.19;20996034;28;20040;-70
2023/05/03 14:02:48;;;;;;;1.08;0.52;;;;;;;19.99;43.35;99891.28;20969902;28;20070;-70
2023/05/03 14:12:50;;;;;;;1.10;0.50;;;;;;;19.94;43.30;99911.63;20986180;28;20491;-71
2023/05/03 14:22:51;;;;;;;0.20;0.20;;;;;;;20.02;43.52;99922.06;20976990;28;20041;-70
2023/05/03 14:32:52;;;;;;;0.98;0.40;;;;;;;19.95;43.61;99916.03;20987383;28;20075;-71
2023/05/03 14:42:59;;;;;;;2.17;0.50;;;;;;;19.88;43.29;99918.34;20975652;28;20545;-71
2023/05/03 14:53:01;;;;;;;1.23;0.40;;;;;;;20.02;43.18;99941.50;20994578;28;20070;-70
2023/05/03 15:03:03;;;;;;;3.13;0.40;;;;;;;19.97;43.38;99922.09;20992205;28;20143;-71
2023/05/03 15:13:04;;;;;;;7.47;0.70;;;;;;;19.99;43.25;99914.31;20979242;28;20052;-71
2023/05/03 15:23:06;;;;;;;3.28;0.60;;;;;;;20.03;43.17;99920.09;20962759;28;20442;-73
2023/05/03 15:33:09;;;;;;;4.28;0.57;;;;;;;19.93;43.30;99909.13;20988373;28;20048;-72
2023/05/03 15:43:10;;;;;;;1.00;0.60;;;;;;;20.09;43.06;99941.13;20991813;28;20438;-73
2023/05/03 15:53:12;;;;;;;1.70;0.40;;;;;;;19.99;42.70;99914.31;20992352;28;20032;-72
2023/05/03 16:03:13;;;;;;;5.80;0.50;;;;;;;20.11;42.56;99924.97;21002059;28;20039;-73
2023/05/03 16:13:14;;;;;;;3.53;0.50;;;;;;;19.98;42.81;99896.03;20984805;28;20037;-73
2023/05/03 16:23:16;;;;;;;1.42;0.50;;;;;;;20.06;42.82;99908.38;21001646;28;20419;-73
2023/05/03 16:33:18;;;;;;;4.22;0.45;;;;;;;20.13;42.69;99914.41;20987587;28;20480;-73
2023/05/03 16:43:19;;;;;;;2.95;0.40;;;;;;;20.03;42.78;99887.59;21005185;28;20086;-73
2023/05/03 16:53:23;;;;;;;1.35;0.57;;;;;;;19.53;42.84;99795.56;21004161;28;20558;-74
2023/05/03 17:03:25;;;;;;;3.63;0.50;;;;;;;19.86;42.57;99842.06;21003768;28;20040;-73
2023/05/03 17:13:26;;;;;;;0.28;0.28;;;;;;;20.10;42.70;99869.72;20983839;28;20044;-73
2023/05/03 17:23:38;;;;;;;1.85;0.60;;;;;;;19.98;42.58;99850.75;21000758;28;20040;-73
2023/05/03 17:33:39;;;;;;;0.57;0.40;;;;;;;20.13;42.55;99878.28;20983247;28;20075;-73
2023/05/03 17:43:41;;;;;;;0.30;0.30;;;;;;;20.02;42.31;99847.09;20999743;28;20040;-73
2023/05/03 17:53:42;;;;;;;0.80;0.43;;;;;;;19.99;42.23;99841.31;20999603;28;20379;-73
2023/05/03 18:03:44;;;;;;;1.05;0.80;;;;;;;20.17;42.33;99886.84;20999079;28;20434;-73
2023/05/03 18:13:45;;;;;;;0.50;0.20;;;;;;;20.15;42.30;99903.81;20998153;28;20147;-73
2023/05/03 18:23:46;;;;;;;0.40;0.35;;;;;;;20.15;42.47;99919.66;20978044;28;20037;-73
2023/05/03 18:33:48;;;;;;;0.70;0.40;;;;;;;20.12;42.17;99917.50;20977661;28;20471;-73
2023/05/03 18:43:50;;;;;;;0.85;0.40;;;;;;;19.98;42.18;99901.56;20977372;28;20492;-73
2023/05/03 18:53:52;;;;;;;0.30;0.30;;;;;;;20.16;42.07;99924.91;20995118;28;20032;-73
2023/05/03 19:03:53;;;;;;;0.77;0.30;;;;;;;19.99;42.23;99894.06;20994575;28;20448;-73
2023/05/03 19:14:03;;;;;;;0.60;0.40;;;;;;;20.09;42.28;99902.25;20994196;28;20035;-73
2023/05/03 19:24:05;;;;;;;0.40;0.40;;;;;;;19.88;41.82;99862.81;20993343;28;20098;-73
2023/05/03 19:34:07;;;;;;;0.57;0.30;;;;;;;20.08;41.92;99885.88;20992186;28;20082;-72
2023/05/03 19:44:08;;;;;;;0.40;0.40;;;;;;;20.17;41.96;99900.75;20992838;28;20388;-72
2023/05/03 19:54:09;;;;;;;0.28;0.28;;;;;;;20.14;41.91;99891.03;20991290;28;20549;-73
2023/05/03 20:04:11;;;;;;;0.20;0.20;;;;;;;19.97;42.10;99868.53;20990056;28;20090;-72
2023/05/03 20:14:12;;;;;;;1.05;0.30;;;;;;;19.86;41.88;99842.88;20989402;28;20385;-73
2023/05/03 20:24:13;;;;;;;0.30;0.30;;;;;;;20.13;41.89;99886.63;20986283;28;20419;-74
2023/05/03 20:34:15;;;;;;;0.30;0.30;;;;;;;20.12;42.08;99893.31;20957435;28;20095;-73
2023/05/03 20:44:22;;;;;;;0.70;0.30;;;;;;;20.16;41.98;99894.38;20967645;28;20048;-74
2023/05/03 20:54:26;;;;;;;1.27;0.40;;;;;;;20.13;42.11;99906.06;21003302;28;20044;-73
2023/05/03 21:04:30;;;;;;;2.92;0.50;;;;;;;20.14;41.97;99927.16;20994846;28;20109;-73
2023/05/03 21:14:34;;;;;;;1.05;0.52;;;;;;;20.14;42.00;99943.00;20972829;28;20068;-74
2023/05/03 21:24:35;;;;;;;0.30;0.30;;;;;;;19.95;42.03;99929.09;20902674;28;20044;-73
2023/05/03 21:34:36;;;;;;;1.40;0.30;;;;;;;20.14;42.05;99971.59;20981808;28;20056;-74
2023/05/03 21:44:40;;;;;;;0.40;0.30;;;;;;;19.97;42.06;99949.06;20999635;28;20028;-74
2023/05/03 21:54:42;;;;;;;0.30;0.30;;;;;;;20.10;41.75;99980.81;20992157;28;20048;-73
2023/05/03 22:04:44;;;;;;;0.55;0.40;;;;;;;20.09;42.07;99991.13;20931413;28;20525;-73
2023/05/03 22:14:45;;;;;;;0.43;0.43;;;;;;;20.08;41.96;99995.03;20998603;28;20028;-74
2023/05/03 22:24:46;;;;;;;0.65;0.32;;;;;;;20.05;41.93;99996.44;21006875;28;20048;-75
2023/05/03 22:34:48;;;;;;;0.45;0.45;;;;;;;19.57;42.06;99917.09;20909823;28;20477;-76
2023/05/03 22:44:49;;;;;;;0.45;0.40;;;;;;;20.00;41.98;99995.69;20911451;28;20400;-76
2023/05/03 22:54:55;;;;;;;0.35;0.35;;;;;;;20.06;41.89;100013.91;20905890;28;20055;-77
2023/05/03 23:04:56;;;;;;;1.85;0.35;;;;;;;20.14;42.29;100032.69;20884073;28;20041;-72
2023/05/03 23:14:58;;;;;;;1.42;0.57;;;;;;;20.18;42.50;100044.88;20907667;28;20098;-72
2023/05/03 23:24:59;;;;;;;1.23;0.30;;;;;;;20.08;42.63;100050.56;20907884;28;20046;-71
2023/05/03 23:35:01;;;;;;;1.95;0.70;;;;;;;20.14;42.53;100070.78;20972073;28;20048;-69
2023/05/03 23:45:03;;;;;;;1.58;0.50;;;;;;;20.06;42.72;100075.00;20958376;28;20087;-72
2023/05/03 23:55:07;;;;;;;3.03;0.80;;;;;;;19.97;43.01;100082.34;20959522;28;20036;-71
